Flight Track Log - Related Links

Times and Time Zones

All times are in EDT time to prevent confusion due to time zone crossing. See the AAL2460 flight status page for this flight to view local times or setup timezone preferences in your user account.

Time Position Orientation Groundspeed Altitude Reporting Facility
EDT Latitude Longitude Course Direction KTS MPH feet Rate Location/Type
Mon 07:57:00 PM 33.7542 -118.6056 132° Southeast  Level FlightAware Approximate
Mon 07:57:00 PM 33.9080 -118.6376 203° Southwest  Level FlightAware Approximate
Mon 07:57:46 PM 33.8264 -118.5478 203° Southwest 258 297 6,800  Level Los Angeles Center
Mon 07:58:00 PM 33.6779 -118.4839 101° East  Level FlightAware Approximate
Mon 07:59:00 PM 33.6350 -118.3375 116° Southeast  Level FlightAware Approximate
Mon 07:59:00 PM 33.6744 -118.4631 101° East  Level FlightAware Approximate
Mon 08:00:00 PM 33.6333 -118.1815 90° East  Level FlightAware Approximate
Mon 08:00:52 PM 33.6442 -118.4042 90° East 347 399 14,400  Level Los Angeles Center
Mon 08:01:53 PM 33.6461 -118.2550 89° East 385 443 16,800 1,268 Climbing Los Angeles Center
Mon 08:02:55 PM 33.6458 -118.1239 90° East 398 458 17,000 48 Climbing Los Angeles Center
Mon 08:03:57 PM 33.6456 -117.9931 90° East 397 457 16,900 339 Descending Los Angeles Center
Mon 08:04:59 PM 33.6458 -117.8589 90° East 402 463 17,700 1,355 Climbing Los Angeles Center
Mon 08:06:00 PM 33.6334 -117.3783 90° East  Level FlightAware Approximate
Mon 08:06:01 PM 33.6450 -117.7158 90° East 427 491 19,700  Level Los Angeles Center
Mon 08:07:03 PM 33.6444 -117.5650 90° East 449 517 21,800 2,146 Climbing Los Angeles Center
Mon 08:08:04 PM 33.6425 -117.3772 91° East 468 539 24,100 1,951 Climbing Los Angeles Center
Mon 08:09:06 PM 33.6406 -117.2167 91° East 480 552 25,800 1,500 Climbing Los Angeles Center
Mon 08:10:08 PM 33.6408 -117.0486 90° East 498 573 27,200 1,403 Climbing Los Angeles Center
Mon 08:11:10 PM 33.6392 -116.8783 91° East 509 586 28,700 1,355 Climbing Los Angeles Center
Mon 08:12:12 PM 33.6372 -116.7094 91° East 521 600 30,000 1,597 Climbing Los Angeles Center
Mon 08:13:14 PM 33.6331 -116.4975 91° East 526 605 32,000 1,790 Climbing Los Angeles Center
Mon 08:14:16 PM 33.6292 -116.3228 91° East 524 603 33,700 1,548 Climbing Los Angeles Center
Mon 08:15:18 PM 33.6353 -116.1464 88° East 527 606 35,200 1,463 Climbing Los Angeles Center
Mon 08:16:19 PM 33.6817 -115.9858 71° East 512 589 36,700 1,366 Climbing Los Angeles Center
Mon 08:17:21 PM 33.7339 -115.8283 68° East 508 585 38,000 1,113 Climbing Los Angeles Center
Mon 08:18:23 PM 33.7847 -115.6700 69° East 507 583 39,000 484 Climbing Los Angeles Center
Mon 08:19:25 PM 33.8353 -115.5131 69° East 504 580 39,000  Level Los Angeles Center
Mon 08:21:29 PM 33.9483 -115.1586 69° East 520 598 39,000  Level Los Angeles Center
Mon 08:22:31 PM 34.0003 -114.9933 69° East 526 605 39,000  Level Los Angeles Center
Mon 08:23:32 PM 34.0522 -114.8294 69° East 525 604 39,000  Level Los Angeles Center
Mon 08:24:34 PM 34.1047 -114.6644 69° East 527 606 39,000  Level Los Angeles Center
Mon 08:25:36 PM 34.1547 -114.5031 69° East 518 596 39,000  Level Los Angeles Center
Mon 08:26:38 PM 34.1975 -114.3344 73° East 525 604 39,000  Level Los Angeles Center
Mon 08:26:57 PM 34.2161 -114.2706 71° East 522 601 39,000  Level Albuquerque Center
Mon 08:27:59 PM 34.2617 -114.1075 71° East 516 594 39,000  Level Albuquerque Center
Mon 08:29:00 PM 34.3072 -113.9467 71° East 511 588 39,000 49 Level Albuquerque Center
Mon 08:30:02 PM 34.3614 -113.7553 71° East 504 580 39,100  Climbing Albuquerque Center
Mon 08:31:03 PM 34.4042 -113.6022 71° East 501 577 39,000  Descending Albuquerque Center
Mon 08:32:05 PM 34.4472 -113.4481 71° East 496 571 39,100 49 Climbing Albuquerque Center
Mon 08:33:06 PM 34.4906 -113.2900 72° East 495 570 39,100 -33 Level Albuquerque Center
Mon 08:35:09 PM 34.5733 -112.9728 72° East 497 572 39,000 -32 Descending Albuquerque Center
Mon 08:36:11 PM 34.5850 -112.7750 86° East 494 568 39,000  Level Albuquerque Center
Mon 08:37:12 PM 34.5900 -112.6083 88° East 498 573 39,000  Level Albuquerque Center
Mon 08:39:15 PM 34.5992 -112.2647 88° East 492 566 39,000 32 Level Albuquerque Center
Mon 08:40:17 PM 34.6031 -112.0983 88° East 492 566 39,100  Climbing Albuquerque Center
Mon 08:41:18 PM 34.6069 -111.9322 88° East 491 565 39,000 -33 Descending Albuquerque Center
Mon 08:43:21 PM 34.6156 -111.5975 88° East 494 568 39,000  Level Albuquerque Center
Mon 08:44:23 PM 34.6189 -111.4306 89° East 494 568 39,000 49 Level Albuquerque Center
Mon 08:45:24 PM 34.6219 -111.2614 89° East 497 572 39,100 49 Climbing Albuquerque Center
Mon 08:46:26 PM 34.6247 -111.0944 89° East 496 571 39,100 -49 Level Albuquerque Center
Mon 08:47:27 PM 34.6286 -110.9256 88° East 498 573 39,000  Descending Albuquerque Center
Mon 08:49:00 PM 34.6000 -110.6921 98° East  Level FlightAware Approximate
Mon 08:49:30 PM 34.6364 -110.5586 98° East 490 564 39,100  Level Albuquerque Center
Mon 08:50:32 PM 34.6392 -110.4006 89° East 490 564 39,100 -32 Level Albuquerque Center
Mon 08:52:00 PM 34.5902 -110.1853 105° East  Level FlightAware Approximate
Mon 08:52:35 PM 34.6414 -110.0564 105° East 492 566 39,000  Level Albuquerque Center
Mon 08:53:36 PM 34.6422 -109.8964 90° East 496 571 39,100 49 Climbing Albuquerque Center
Mon 08:54:37 PM 34.6433 -109.7119 90° East 492 566 39,100  Level Albuquerque Center
Mon 08:55:39 PM 34.6444 -109.5547 89° East 491 565 39,100 -32 Level Albuquerque Center
Mon 08:57:42 PM 34.6458 -109.2119 90° East 490 564 39,000  Descending Albuquerque Center
Mon 08:58:43 PM 34.6461 -109.0278 90° East 490 564 39,100 48 Climbing Albuquerque Center
Mon 08:59:46 PM 34.6458 -108.8683 90° East 493 567 39,100  Level Albuquerque Center
Mon 09:00:47 PM 34.6453 -108.7114 90° East 490 564 39,100  Level Albuquerque Center
Mon 09:01:48 PM 34.6453 -108.5264 90° East 491 565 39,100 -49 Level Albuquerque Center
Mon 09:02:50 PM 34.6439 -108.3731 91° East 492 566 39,000 -49 Descending Albuquerque Center
Mon 09:03:51 PM 34.6428 -108.2092 90° East 490 564 39,000  Level Albuquerque Center
Mon 09:04:52 PM 34.6411 -108.0447 91° East 489 563 39,000  Level Albuquerque Center
Mon 09:06:00 PM 34.6220 -107.8737 98° East  Level Estimated
Mon 09:06:55 PM 34.6394 -107.6864 98° East 485 558 39,000  Level Albuquerque Center
Mon 09:08:58 PM 34.6353 -107.3619 91° East 484 557 39,000 33 Level Albuquerque Center
Mon 09:09:59 PM 34.6333 -107.2019 91° East 481 554 39,100  Climbing Albuquerque Center
Mon 09:11:00 PM 34.6308 -107.0392 91° East 485 558 39,000 -33 Descending Albuquerque Center
Mon 09:13:03 PM 34.6225 -106.6819 92° East 488 562 39,000  Level Albuquerque Center
Mon 09:14:04 PM 34.6200 -106.5200 91° East 486 559 39,000  Level Albuquerque Center
Mon 09:15:06 PM 34.6172 -106.3569 91° East 487 560 39,000 49 Level Albuquerque Center
Mon 09:16:07 PM 34.6133 -106.1925 92° East 488 562 39,100 33 Climbing Albuquerque Center
Mon 09:18:09 PM 34.6044 -105.8583 92° East 490 564 39,100  Level Albuquerque Center
Mon 09:19:11 PM 34.6017 -105.6906 91° East 493 567 39,100  Level Albuquerque Center
Mon 09:20:12 PM 34.5958 -105.4939 92° East 496 571 39,100  Level Albuquerque Center
Mon 09:21:13 PM 34.5925 -105.3247 91° East 499 574 39,100 -49 Level Albuquerque Center
Mon 09:22:14 PM 34.5883 -105.1558 92° East 498 573 39,000  Descending Albuquerque Center
Mon 09:24:17 PM 34.5792 -104.8233 92° East 491 565 39,100  Climbing Albuquerque Center
Mon 09:25:18 PM 34.5739 -104.6572 92° East 490 564 39,000 -20 Descending Albuquerque Center
Mon 09:27:00 PM 34.5627 -104.3991 93° East  Level FlightAware Approximate
Mon 09:29:23 PM 34.5497 -104.0053 93° East 483 556 39,000  Level Albuquerque Center
Mon 09:30:25 PM 34.5439 -103.8408 92° East 486 559 39,100  Climbing Albuquerque Center
Mon 09:31:26 PM 34.5361 -103.6747 93° East 489 563 39,000  Descending Albuquerque Center
Mon 09:32:27 PM 34.5281 -103.4811 93° East 490 564 39,100 49 Climbing Albuquerque Center
Mon 09:33:29 PM 34.5206 -103.3139 93° East 493 567 39,100  Level Albuquerque Center
Mon 09:34:00 PM 34.5111 -103.3373 93° East  Level FlightAware Approximate
Mon 09:34:30 PM 34.5133 -103.1481 93° East 492 566 39,100  Level Albuquerque Center
Mon 09:35:31 PM 34.5053 -102.9817 93° East 492 566 39,100  Level Albuquerque Center
Mon 09:36:32 PM 34.4958 -102.8150 94° East 492 566 39,100 -49 Level Albuquerque Center
Mon 09:37:34 PM 34.4783 -102.6531 97° East 494 568 39,000  Descending Albuquerque Center
Mon 09:38:35 PM 34.4619 -102.4914 97° East 489 563 39,100 49 Climbing Albuquerque Center
Mon 09:39:36 PM 34.4453 -102.3325 97° East 484 557 39,100  Level Albuquerque Center
Mon 09:40:38 PM 34.4283 -102.1728 97° East 481 554 39,100  Level Albuquerque Center
Mon 09:41:39 PM 34.4083 -101.9831 97° East 479 551 39,100  Level Albuquerque Center
Mon 09:42:40 PM 34.3908 -101.8256 98° East 477 549 39,100 -49 Level Albuquerque Center
Mon 09:43:42 PM 34.3731 -101.6675 98° East 476 548 39,000  Descending Albuquerque Center
Mon 09:44:43 PM 34.3553 -101.5100 98° East 476 548 39,100  Climbing Albuquerque Center
Mon 09:45:44 PM 34.3381 -101.3544 98° East 474 545 39,000  Descending Albuquerque Center
Mon 09:46:52 PM 34.3175 -101.1625 97° East 468 539 39,100 47 Climbing Fort Worth Center
Mon 09:47:52 PM 34.2950 -101.0058 100° East 468 539 39,100 -33 Level Fort Worth Center
Mon 09:49:52 PM 34.2325 -100.6992 104° East 468 539 39,000  Descending Fort Worth Center
Mon 09:50:52 PM 34.1967 -100.5472 106° East 468 539 39,100  Climbing Fort Worth Center
Mon 09:52:00 PM 34.1987 -100.3772 89° East  Level FlightAware Approximate
Mon 09:52:52 PM 34.1283 -100.2611 89° East 468 539 39,000  Level Fort Worth Center
Mon 09:53:52 PM 34.0942 -100.1019 104° East 468 539 39,000 -350 Level Fort Worth Center
Mon 09:54:52 PM 34.0578 -99.9481 106° East 474 545 38,300 -750 Descending Fort Worth Center
Mon 09:55:52 PM 34.0214 -99.7942 106° East 474 545 37,500 -1,300 Descending Fort Worth Center
Mon 09:57:52 PM 33.9494 -99.4867 106° East 475 547 34,400 -1,500 Descending Fort Worth Center
Mon 09:58:52 PM 33.9122 -99.3331 106° East 475 547 33,000 -1,600 Descending Fort Worth Center
Mon 09:59:52 PM 33.8769 -99.1872 106° East 475 547 31,200 -1,750 Descending Fort Worth Center
Mon 10:00:52 PM 33.8353 -99.0314 108° East 475 547 29,500 -1,600 Descending Fort Worth Center
Mon 10:01:52 PM 33.8014 -98.8883 106° East 459 528 28,000 -1,750 Descending Fort Worth Center
Mon 10:02:52 PM 33.7531 -98.7300 110° East 454 522 26,000 -1,650 Descending Fort Worth Center
Mon 10:03:52 PM 33.7064 -98.5944 112° Southeast 448 516 24,700 -1,300 Descending Fort Worth Center
Mon 10:04:52 PM 33.6617 -98.4617 112° Southeast 435 501 23,400 -1,300 Descending Fort Worth Center
Mon 10:05:52 PM 33.6231 -98.3439 111° Southeast 430 495 22,100 -1,200 Descending Fort Worth Center
Mon 10:06:52 PM 33.5822 -98.2189 111° Southeast 412 474 21,000 -1,250 Descending Fort Worth Center
Mon 10:07:52 PM 33.5331 -98.0814 113° Southeast 412 474 19,600 -1,200 Descending Fort Worth Center
Mon 10:08:52 PM 33.4958 -97.9739 113° Southeast 399 459 18,600 -1,400 Descending Fort Worth Center
Mon 10:09:52 PM 33.4547 -97.8492 112° Southeast 380 437 16,800 -1,650 Descending Fort Worth Center
Mon 10:10:52 PM 33.4175 -97.7444 113° Southeast 380 437 15,300 -1,500 Descending Fort Worth Center
Mon 10:11:52 PM 33.3717 -97.6272 115° Southeast 369 425 13,800 -1,700 Descending Fort Worth Center
Mon 10:12:52 PM 33.3050 -97.5453 134° Southeast 345 397 11,900 -1,400 Descending Fort Worth Center
Mon 10:13:52 PM 33.2425 -97.4756 137° Southeast 345 397 11,000 -450 Descending Fort Worth Center
Mon 10:14:52 PM 33.1653 -97.3861 136° Southeast 345 397 11,000  Level Fort Worth Center
Mon 10:15:52 PM 33.1047 -97.3167 136° Southeast 345 397 11,000  Level Fort Worth Center
Mon 10:16:52 PM 33.0317 -97.2300 135° Southeast 339 390 11,000  Level Fort Worth Center
Mon 10:17:52 PM 32.9772 -97.1781 141° Southeast 302 348 11,000 -500 Level Fort Worth Center
Mon 10:18:52 PM 32.9042 -97.1708 175° South 245 282 10,000 -1,550 Descending Fort Worth Center
Mon 10:19:52 PM 32.8414 -97.1711 180° South 240 276 7,900 -2,100 Descending Fort Worth Center
Mon 10:20:52 PM 32.7642 -97.1689 179° South 250 288 5,800 -2,100 Descending Fort Worth Center

Login

Don't have an account? Register now (free) for customized features, flight alerts, and more!